createdAt,value
2018-06-24T00:01:26.379Z,13.42
2018-06-24T00:03:55.486Z,13.43
2018-06-24T00:06:24.553Z,13.40
2018-06-24T00:08:53.517Z,13.39
2018-06-24T00:11:22.608Z,13.33
2018-06-24T00:13:51.601Z,13.30
2018-06-24T00:16:20.596Z,13.26
2018-06-24T00:18:49.585Z,13.29
2018-06-24T00:21:18.580Z,13.25
2018-06-24T00:23:47.549Z,13.23
2018-06-24T00:26:16.609Z,13.11
2018-06-24T00:28:45.579Z,13.12
2018-06-24T00:31:14.584Z,13.08
2018-06-24T00:33:43.579Z,13.08
2018-06-24T00:36:12.575Z,13.00
2018-06-24T00:38:41.558Z,13.00
2018-06-24T00:41:10.577Z,12.96
2018-06-24T00:43:39.564Z,12.95
2018-06-24T00:46:08.588Z,12.94
2018-06-24T00:48:37.680Z,12.96
2018-06-24T00:51:06.717Z,12.94
2018-06-24T00:53:35.758Z,12.85
2018-06-24T00:56:04.784Z,12.85
2018-06-24T00:58:33.801Z,12.83
2018-06-24T01:01:02.819Z,12.85
2018-06-24T01:03:31.853Z,12.85
2018-06-24T01:06:00.916Z,12.84
2018-06-24T01:08:29.965Z,12.77
2018-06-24T01:10:58.961Z,12.74
2018-06-24T01:13:27.936Z,12.75
2018-06-24T01:15:56.989Z,12.66
2018-06-24T01:18:25.987Z,12.61
2018-06-24T01:20:55.121Z,12.65
2018-06-24T01:23:24.144Z,12.63
2018-06-24T01:25:53.147Z,12.61
2018-06-24T01:28:22.116Z,12.59
2018-06-24T01:30:51.128Z,12.58
2018-06-24T01:33:20.092Z,12.61
2018-06-24T01:35:49.188Z,12.57
2018-06-24T01:38:18.164Z,12.56
2018-06-24T01:40:47.152Z,12.52
2018-06-24T01:43:16.200Z,12.55
2018-06-24T01:45:45.184Z,12.53
2018-06-24T01:48:14.152Z,12.50
2018-06-24T01:50:43.151Z,12.47
2018-06-24T01:53:12.252Z,12.45
2018-06-24T01:55:41.226Z,12.45
2018-06-24T01:58:10.204Z,12.46
2018-06-24T02:00:39.182Z,12.52
2018-06-24T02:03:08.205Z,12.44
2018-06-24T02:05:37.266Z,12.41
2018-06-24T02:08:06.313Z,12.36
2018-06-24T02:10:35.327Z,12.23
2018-06-24T02:13:04.345Z,12.15
2018-06-24T02:15:33.316Z,12.21
2018-06-24T02:18:02.347Z,12.19
2018-06-24T02:20:31.364Z,12.21
2018-06-24T02:23:00.416Z,12.18
2018-06-24T02:25:29.392Z,12.18
2018-06-24T02:27:58.451Z,12.20
2018-06-24T02:30:27.502Z,12.20
2018-06-24T02:32:56.491Z,12.21
2018-06-24T02:35:25.493Z,12.22
2018-06-24T02:37:54.480Z,12.17
2018-06-24T02:40:23.498Z,12.20
2018-06-24T02:42:52.477Z,12.21
2018-06-24T02:45:21.510Z,12.16
2018-06-24T02:47:50.541Z,12.11
2018-06-24T02:50:19.584Z,12.13
2018-06-24T02:52:48.620Z,12.12
2018-06-24T02:55:17.599Z,12.10
2018-06-24T02:57:46.671Z,12.12
2018-06-24T03:00:15.641Z,12.13
2018-06-24T03:02:44.717Z,12.15
2018-06-24T03:05:13.708Z,12.23
2018-06-24T03:07:42.830Z,12.31
2018-06-24T03:10:11.827Z,12.30
2018-06-24T03:12:40.815Z,12.25
2018-06-24T03:15:09.784Z,12.32
2018-06-24T03:17:38.869Z,12.40
2018-06-24T03:20:07.932Z,12.49
2018-06-24T03:22:36.929Z,12.52
2018-06-24T03:25:05.917Z,12.55
2018-06-24T03:27:34.956Z,12.57
2018-06-24T03:30:04.069Z,12.58
2018-06-24T03:32:33.043Z,12.48
2018-06-24T03:35:02.020Z,12.63
2018-06-24T03:37:31.014Z,12.70
2018-06-24T03:39:59.979Z,12.67
2018-06-24T03:42:28.986Z,12.68
2018-06-24T03:44:57.947Z,12.71
2018-06-24T03:47:26.933Z,12.70
2018-06-24T03:49:55.896Z,12.73
2018-06-24T03:52:24.936Z,12.81
2018-06-24T03:54:53.932Z,12.85
2018-06-24T03:57:23.003Z,12.94
2018-06-24T03:59:52.024Z,13.02
2018-06-24T04:02:21.073Z,13.15
2018-06-24T04:04:50.157Z,13.21
2018-06-24T04:07:19.272Z,13.27
2018-06-24T04:09:48.293Z,13.40
2018-06-24T04:12:17.445Z,13.48
2018-06-24T04:14:46.744Z,13.55
2018-06-24T04:17:15.808Z,13.63
2018-06-24T04:19:44.776Z,13.68
2018-06-24T04:22:13.822Z,13.68
2018-06-24T04:24:42.771Z,13.67
2018-06-24T04:27:11.760Z,13.65
2018-06-24T04:29:40.749Z,13.61
2018-06-24T04:32:09.732Z,13.57
2018-06-24T04:34:38.849Z,13.61
2018-06-24T04:37:07.872Z,13.68
2018-06-24T04:39:36.901Z,13.78
2018-06-24T04:42:06.024Z,13.90
2018-06-24T04:44:35.045Z,14.07
2018-06-24T04:47:04.096Z,14.20
2018-06-24T04:49:33.059Z,14.37
2018-06-24T04:52:02.040Z,14.53
2018-06-24T04:54:31.015Z,14.61
2018-06-24T04:57:00.059Z,14.65
2018-06-24T04:59:29.035Z,14.67
2018-06-24T05:01:58.003Z,14.79
2018-06-24T05:04:26.998Z,14.91
2018-06-24T05:06:55.963Z,15.03
2018-06-24T05:09:24.936Z,15.20
2018-06-24T05:11:53.969Z,15.41
2018-06-24T05:14:23.041Z,15.62
2018-06-24T05:16:51.995Z,15.76
2018-06-24T05:19:21.068Z,15.87
2018-06-24T05:21:50.095Z,15.94
2018-06-24T05:24:19.067Z,16.03
2018-06-24T05:26:48.045Z,16.13
2018-06-24T05:29:17.033Z,16.16
2018-06-24T05:31:46.093Z,16.27
2018-06-24T05:34:15.081Z,16.39
2018-06-24T05:36:44.045Z,16.50
2018-06-24T05:39:13.700Z,16.59
2018-06-24T05:41:43.104Z,16.72
2018-06-24T05:44:12.148Z,16.82
2018-06-24T05:46:41.093Z,16.92
2018-06-24T05:49:10.076Z,17.10
2018-06-24T05:51:39.040Z,17.30
2018-06-24T05:54:08.028Z,17.47
2018-06-24T05:56:37.000Z,17.61
2018-06-24T05:59:06.053Z,17.79
2018-06-24T06:01:35.026Z,17.98
2018-06-24T06:04:04.208Z,18.12
2018-06-24T06:06:33.953Z,18.28
2018-06-24T06:09:07.257Z,18.37
2018-06-24T06:11:36.288Z,18.55
2018-06-24T06:14:05.432Z,18.75
2018-06-24T06:16:34.443Z,18.91
2018-06-24T06:19:03.472Z,19.08
2018-06-24T06:21:32.728Z,19.29
2018-06-24T06:24:01.709Z,19.39
2018-06-24T06:26:32.007Z,19.46
2018-06-24T06:29:05.475Z,19.64
2018-06-24T06:31:35.941Z,19.94
2018-06-24T06:34:05.049Z,20.10
2018-06-24T06:36:34.082Z,20.44
2018-06-24T06:39:03.172Z,20.66
2018-06-24T06:41:32.156Z,20.85
2018-06-24T06:44:01.198Z,20.82
2018-06-24T06:46:30.174Z,20.58
2018-06-24T06:48:59.169Z,20.57
2018-06-24T06:51:28.224Z,20.73
2018-06-24T06:53:58.084Z,20.83
2018-06-24T06:56:27.047Z,20.93
2018-06-24T06:58:56.037Z,21.21
2018-06-24T07:01:25.069Z,21.62
2018-06-24T07:03:54.040Z,21.60
2018-06-24T07:06:22.992Z,21.47
2018-06-24T07:08:51.988Z,21.37
2018-06-24T07:11:21.000Z,21.36
2018-06-24T07:13:50.038Z,21.47
2018-06-24T07:16:19.004Z,21.80
2018-06-24T07:18:48.025Z,21.80
2018-06-24T07:21:17.041Z,21.55
2018-06-24T07:23:46.084Z,21.58
2018-06-24T07:26:15.096Z,21.52
2018-06-24T07:28:44.058Z,21.63
2018-06-24T07:31:13.023Z,21.71
2018-06-24T07:33:42.152Z,21.86
2018-06-24T07:36:10.996Z,21.92
2018-06-24T07:38:40.029Z,22.08
2018-06-24T07:41:08.979Z,22.28
2018-06-24T07:43:38.081Z,22.18
2018-06-24T07:46:07.052Z,22.42
2018-06-24T07:48:36.021Z,22.70
2018-06-24T07:51:04.981Z,23.01
2018-06-24T07:53:33.996Z,23.13
2018-06-24T07:56:03.065Z,23.12
2018-06-24T07:58:32.150Z,23.06
2018-06-24T08:01:01.108Z,23.06
2018-06-24T08:03:30.247Z,23.34
2018-06-24T08:05:59.260Z,23.59
2018-06-24T08:08:28.277Z,23.42
2018-06-24T08:10:57.329Z,23.09
2018-06-24T08:13:26.361Z,22.77
2018-06-24T08:15:55.406Z,22.52
2018-06-24T08:18:24.404Z,22.37
2018-06-24T08:20:53.395Z,22.26
2018-06-24T08:23:22.458Z,21.93
2018-06-24T08:25:51.439Z,21.98
2018-06-24T08:28:20.480Z,22.22
2018-06-24T08:30:49.480Z,22.41
2018-06-24T08:33:18.439Z,22.48
2018-06-24T08:35:47.535Z,22.62
2018-06-24T08:38:16.597Z,22.61
2018-06-24T08:40:45.644Z,22.49
2018-06-24T08:43:14.668Z,22.69
2018-06-24T08:45:43.852Z,22.98
2018-06-24T08:48:12.820Z,23.20
2018-06-24T08:50:41.799Z,23.16
2018-06-24T08:53:13.413Z,23.00
2018-06-24T08:55:42.465Z,22.98
2018-06-24T08:58:11.456Z,22.95
2018-06-24T09:00:40.504Z,22.96
2018-06-24T09:03:09.580Z,22.87
2018-06-24T09:05:38.643Z,22.88
2018-06-24T09:08:07.788Z,22.87
2018-06-24T09:10:36.763Z,22.91
2018-06-24T09:13:05.934Z,22.69
2018-06-24T09:15:34.996Z,22.32
2018-06-24T09:18:04.030Z,22.03
2018-06-24T09:20:33.011Z,22.00
2018-06-24T09:23:01.986Z,21.79
2018-06-24T09:25:30.999Z,21.79
2018-06-24T09:27:59.968Z,21.63
2018-06-24T09:30:29.026Z,21.70
2018-06-24T09:32:58.054Z,21.83
2018-06-24T09:35:27.027Z,21.99
2018-06-24T09:37:56.000Z,22.13
2018-06-24T09:40:25.033Z,22.33
2018-06-24T09:42:54.061Z,22.45
2018-06-24T09:45:23.081Z,22.47
2018-06-24T09:47:52.348Z,22.54
2018-06-24T09:50:21.367Z,22.53
2018-06-24T09:52:50.385Z,22.65
2018-06-24T09:55:19.431Z,22.69
2018-06-24T09:57:48.404Z,22.82
2018-06-24T10:00:23.081Z,22.90
2018-06-24T10:02:53.250Z,23.02
2018-06-24T10:05:22.759Z,23.01
2018-06-24T10:07:51.779Z,23.23
2018-06-24T10:10:20.844Z,23.55
2018-06-24T10:12:49.879Z,23.78
2018-06-24T10:15:18.855Z,24.17
2018-06-24T10:17:47.896Z,24.27
2018-06-24T10:20:16.887Z,24.46
2018-06-24T10:22:46.256Z,24.76
2018-06-24T10:25:15.291Z,24.85
2018-06-24T10:27:44.328Z,25.07
2018-06-24T10:30:13.467Z,25.09
2018-06-24T10:32:42.477Z,24.89
2018-06-24T10:35:11.521Z,24.70
2018-06-24T10:37:40.557Z,24.68
2018-06-24T10:40:09.539Z,24.64
2018-06-24T10:42:38.504Z,24.57
2018-06-24T10:45:07.560Z,24.50
2018-06-24T10:47:36.653Z,24.18
2018-06-24T10:50:05.640Z,23.92
2018-06-24T10:52:34.699Z,23.74
2018-06-24T10:55:03.660Z,23.91
2018-06-24T10:57:32.724Z,24.09
2018-06-24T11:00:01.727Z,24.20
2018-06-24T11:02:30.726Z,24.43
2018-06-24T11:04:59.843Z,24.87
2018-06-24T11:07:28.848Z,25.16
2018-06-24T11:09:57.802Z,25.14
2018-06-24T11:12:26.806Z,25.31
2018-06-24T11:14:55.773Z,25.62
2018-06-24T11:17:24.780Z,25.87
2018-06-24T11:19:53.831Z,25.50
2018-06-24T11:22:22.867Z,24.87
2018-06-24T11:24:51.880Z,24.16
2018-06-24T11:27:20.913Z,23.72
2018-06-24T11:29:49.913Z,23.59
2018-06-24T11:32:19.014Z,23.75
2018-06-24T11:34:48.019Z,23.85
2018-06-24T11:37:17.024Z,23.87
2018-06-24T11:39:46.010Z,23.78
2018-06-24T11:42:15.116Z,23.85
2018-06-24T11:44:44.138Z,24.15
2018-06-24T11:47:13.171Z,24.41
2018-06-24T11:49:42.221Z,24.65
2018-06-24T11:52:11.269Z,24.61
2018-06-24T11:54:40.233Z,24.58
2018-06-24T11:57:09.224Z,24.78
2018-06-24T11:59:38.200Z,25.11
2018-06-24T12:02:07.401Z,25.48
2018-06-24T12:04:36.356Z,25.62
2018-06-24T12:07:05.469Z,25.69
2018-06-24T12:09:34.533Z,25.64
2018-06-24T12:12:03.584Z,25.98
2018-06-24T12:14:32.553Z,26.26
2018-06-24T12:17:01.701Z,26.06
2018-06-24T12:19:30.720Z,25.30
2018-06-24T12:21:59.765Z,25.43
2018-06-24T12:24:28.739Z,24.93
2018-06-24T12:26:57.711Z,24.60
2018-06-24T12:29:26.695Z,24.27
2018-06-24T12:31:55.676Z,24.11
2018-06-24T12:34:24.705Z,24.12
2018-06-24T12:36:53.753Z,24.00
2018-06-24T12:39:22.779Z,23.85
2018-06-24T12:41:51.860Z,23.79
2018-06-24T12:44:20.815Z,23.94
2018-06-24T12:46:49.791Z,24.10
2018-06-24T12:49:18.747Z,24.16
2018-06-24T12:51:47.725Z,24.30
2018-06-24T12:54:16.861Z,24.38
2018-06-24T12:56:46.040Z,24.49
2018-06-24T12:59:15.155Z,24.56
2018-06-24T13:01:44.016Z,24.72
2018-06-24T13:04:13.033Z,24.85
2018-06-24T13:06:42.020Z,24.95
2018-06-24T13:09:11.145Z,25.17
2018-06-24T13:11:40.142Z,25.35
2018-06-24T13:14:09.247Z,25.48
2018-06-24T13:16:38.293Z,25.54
2018-06-24T13:19:07.284Z,25.52
2018-06-24T13:21:36.259Z,25.31
2018-06-24T13:24:05.375Z,25.11
2018-06-24T13:26:34.416Z,24.93
2018-06-24T13:29:03.448Z,24.61
2018-06-24T13:31:32.653Z,24.49
2018-06-24T13:34:01.612Z,24.46
2018-06-24T13:36:30.640Z,24.17
2018-06-24T13:38:59.603Z,24.04
2018-06-24T13:41:28.607Z,24.00
2018-06-24T13:43:57.575Z,24.06
2018-06-24T13:46:26.637Z,24.22
2018-06-24T13:48:55.628Z,24.34
2018-06-24T13:51:24.717Z,24.43
2018-06-24T13:53:53.769Z,24.55
2018-06-24T13:56:23.089Z,24.59
2018-06-24T13:58:52.092Z,24.58
2018-06-24T14:01:21.124Z,24.65
2018-06-24T14:03:50.115Z,24.70
2018-06-24T14:06:19.137Z,24.76
2018-06-24T14:08:48.192Z,24.75
2018-06-24T14:11:17.220Z,24.61
2018-06-24T14:13:46.273Z,24.57
2018-06-24T14:16:15.247Z,24.43
2018-06-24T14:18:44.536Z,24.32
2018-06-24T14:21:13.669Z,24.26
2018-06-24T14:23:42.728Z,24.23
2018-06-24T14:26:11.892Z,24.26
2018-06-24T14:28:40.907Z,24.25
2018-06-24T14:31:09.913Z,24.23
2018-06-24T14:33:38.892Z,24.27
2018-06-24T14:36:07.903Z,24.27
2018-06-24T14:38:36.961Z,24.15
2018-06-24T14:41:06.109Z,24.04
2018-06-24T14:43:35.079Z,23.97
2018-06-24T14:46:04.489Z,23.92
2018-06-24T14:48:33.576Z,23.82
2018-06-24T14:51:03.825Z,23.84
2018-06-24T14:53:33.115Z,24.07
2018-06-24T14:56:02.085Z,24.23
2018-06-24T14:58:31.959Z,24.31
2018-06-24T15:01:00.969Z,24.36
2018-06-24T15:03:29.959Z,24.22
2018-06-24T15:05:58.952Z,24.00
2018-06-24T15:08:27.988Z,23.92
2018-06-24T15:10:57.049Z,23.88
2018-06-24T15:13:26.052Z,23.87
2018-06-24T15:15:55.039Z,23.91
2018-06-24T15:18:24.068Z,23.91
2018-06-24T15:20:53.119Z,23.95
2018-06-24T15:23:22.111Z,23.94
2018-06-24T15:25:51.132Z,23.89
2018-06-24T15:28:20.106Z,23.83
2018-06-24T15:30:49.173Z,23.74
2018-06-24T15:33:18.149Z,23.74
2018-06-24T15:35:47.141Z,23.76
2018-06-24T15:38:16.144Z,23.68
2018-06-24T15:40:45.312Z,23.67
2018-06-24T15:43:14.320Z,23.64
2018-06-24T15:45:43.306Z,23.59
2018-06-24T15:48:19.212Z,23.52
2018-06-24T15:50:48.211Z,23.50
2018-06-24T15:53:17.259Z,23.53
2018-06-24T15:55:46.372Z,23.49
2018-06-24T15:58:15.423Z,23.39
2018-06-24T16:00:44.445Z,23.41
2018-06-24T16:03:13.425Z,23.52
2018-06-24T16:05:42.417Z,23.49
2018-06-24T16:08:11.526Z,23.45
2018-06-24T16:10:40.484Z,23.51
2018-06-24T16:13:09.471Z,23.47
2018-06-24T16:15:38.866Z,23.41
2018-06-24T16:18:08.011Z,23.28
2018-06-24T16:20:37.284Z,23.22
2018-06-24T16:23:06.220Z,23.15
2018-06-24T16:25:35.527Z,23.20
2018-06-24T16:28:04.563Z,23.17
2018-06-24T16:30:33.883Z,23.10
2018-06-24T16:33:03.012Z,23.03
2018-06-24T16:35:32.324Z,22.90
2018-06-24T16:38:01.455Z,22.77
2018-06-24T16:40:30.432Z,22.68
2018-06-24T16:42:59.489Z,22.44
2018-06-24T16:45:28.453Z,22.38
2018-06-24T16:47:57.436Z,22.27
2018-06-24T16:50:26.395Z,22.16
2018-06-24T16:52:55.409Z,22.14
2018-06-24T16:55:24.470Z,22.07
2018-06-24T16:57:53.464Z,22.00
2018-06-24T17:00:22.448Z,21.88
2018-06-24T17:02:51.458Z,21.84
2018-06-24T17:05:20.432Z,21.77
2018-06-24T17:07:49.476Z,21.70
2018-06-24T17:10:18.501Z,21.59
2018-06-24T17:12:47.517Z,21.53
2018-06-24T17:17:44.340Z,21.42
2018-06-24T17:20:13.384Z,21.33
2018-06-24T17:22:42.349Z,21.29
2018-06-24T17:25:11.339Z,21.20
2018-06-24T17:27:40.369Z,21.17
2018-06-24T17:30:09.384Z,21.14
2018-06-24T17:32:38.382Z,21.06
2018-06-24T17:35:07.503Z,21.02
2018-06-24T17:37:36.505Z,20.98
2018-06-24T17:40:05.590Z,20.89
2018-06-24T17:42:34.578Z,20.68
2018-06-24T17:45:03.612Z,20.59
2018-06-24T17:47:32.623Z,20.50
2018-06-24T17:50:02.091Z,20.44
2018-06-24T17:52:31.108Z,20.39
2018-06-24T17:55:00.303Z,20.34
2018-06-24T17:57:29.352Z,20.40
2018-06-24T17:59:58.348Z,20.43
2018-06-24T18:02:27.399Z,20.40
2018-06-24T18:04:56.440Z,20.32
2018-06-24T18:07:25.477Z,20.30
2018-06-24T18:09:54.472Z,20.26
2018-06-24T18:12:23.464Z,20.18
2018-06-24T18:14:52.526Z,20.12
2018-06-24T18:17:21.557Z,20.15
2018-06-24T18:19:50.736Z,20.09
2018-06-24T18:22:19.931Z,20.05
2018-06-24T18:24:49.021Z,20.04
2018-06-24T18:27:18.049Z,19.99
2018-06-24T18:29:47.071Z,20.03
2018-06-24T18:32:16.176Z,20.03
2018-06-24T18:34:45.186Z,20.03
2018-06-24T18:37:14.157Z,19.99
2018-06-24T18:39:43.145Z,19.96
2018-06-24T18:42:12.113Z,19.91
2018-06-24T18:44:41.123Z,19.90
2018-06-24T18:47:10.112Z,19.86
2018-06-24T18:49:39.100Z,19.90
2018-06-24T18:52:08.089Z,19.88
2018-06-24T18:54:37.375Z,19.86
2018-06-24T18:57:06.391Z,19.77
2018-06-24T18:59:35.461Z,19.75
2018-06-24T19:02:04.464Z,19.72
2018-06-24T19:04:33.458Z,19.68
2018-06-24T19:07:02.497Z,19.64
2018-06-24T19:09:31.485Z,19.59
2018-06-24T19:12:00.466Z,19.58
2018-06-24T19:14:29.443Z,19.53
2018-06-24T19:16:58.434Z,19.53
2018-06-24T19:19:27.500Z,19.53
2018-06-24T19:21:56.561Z,19.48
2018-06-24T19:24:25.649Z,19.46
2018-06-24T19:26:54.644Z,19.47
2018-06-24T19:29:23.637Z,19.47
2018-06-24T19:31:52.720Z,19.46
2018-06-24T19:34:21.695Z,19.47
2018-06-24T19:36:50.800Z,19.48
2018-06-24T19:39:19.789Z,19.48
2018-06-24T19:41:48.791Z,19.44
2018-06-24T19:44:17.849Z,19.36
2018-06-24T19:46:46.833Z,19.26
2018-06-24T19:49:15.793Z,19.21
2018-06-24T19:51:44.793Z,19.14
2018-06-24T19:54:13.752Z,19.09
2018-06-24T19:56:42.747Z,19.05
2018-06-24T19:59:11.704Z,19.05
2018-06-24T20:01:40.693Z,19.05
2018-06-24T20:04:09.774Z,19.08
2018-06-24T20:06:38.763Z,19.04
2018-06-24T20:09:09.696Z,19.04
2018-06-24T20:11:38.733Z,19.03
2018-06-24T20:14:07.720Z,19.03
2018-06-24T20:16:36.778Z,18.95
2018-06-24T20:19:05.962Z,18.90
2018-06-24T20:21:34.988Z,18.90
2018-06-24T20:24:03.957Z,18.88
2018-06-24T20:26:32.997Z,18.89
2018-06-24T20:29:02.113Z,18.85
2018-06-24T20:31:31.246Z,18.85
2018-06-24T20:34:00.529Z,18.83
2018-06-24T20:36:29.781Z,18.89
2018-06-24T20:38:58.916Z,18.94
2018-06-24T20:41:27.910Z,18.97
2018-06-24T20:43:56.872Z,18.98
2018-06-24T20:46:25.941Z,18.89
2018-06-24T20:48:54.959Z,18.88
2018-06-24T20:51:23.956Z,18.94
2018-06-24T20:53:52.936Z,18.94
2018-06-24T20:56:22.386Z,18.95
2018-06-24T20:58:51.389Z,18.89
2018-06-24T21:01:20.374Z,18.88
2018-06-24T21:03:49.414Z,18.86
2018-06-24T21:06:18.377Z,18.84
2018-06-24T21:08:47.410Z,18.86
2018-06-24T21:11:16.395Z,18.85
2018-06-24T21:13:45.446Z,18.83
2018-06-24T21:16:14.534Z,18.81
2018-06-24T21:18:43.580Z,18.80
2018-06-24T21:21:12.588Z,18.80
2018-06-24T21:23:41.624Z,18.80
2018-06-24T21:26:10.672Z,18.81
2018-06-24T21:28:39.718Z,18.78
2018-06-24T21:31:08.820Z,18.77
2018-06-24T21:33:37.801Z,18.80
2018-06-24T21:36:06.831Z,18.77
2018-06-24T21:38:35.908Z,18.68
2018-06-24T21:41:04.936Z,18.62
2018-06-24T21:43:33.911Z,18.58
2018-06-24T21:46:02.922Z,18.62
2018-06-24T21:48:31.960Z,18.57
2018-06-24T21:51:01.008Z,18.54
2018-06-24T21:53:29.968Z,18.54
2018-06-24T21:55:58.963Z,18.53
2018-06-24T21:58:27.940Z,18.53
2018-06-24T22:00:57.032Z,18.49
2018-06-24T22:03:26.044Z,18.41
2018-06-24T22:05:55.017Z,18.39
2018-06-24T22:08:24.109Z,18.35
2018-06-24T22:10:53.132Z,18.27
2018-06-24T22:13:22.115Z,18.23
2018-06-24T22:15:51.082Z,18.15
2018-06-24T22:18:20.079Z,18.11
2018-06-24T22:20:49.168Z,18.09
2018-06-24T22:23:18.149Z,18.11
2018-06-24T22:25:47.208Z,18.11
2018-06-24T22:28:16.204Z,18.09
2018-06-24T22:30:45.260Z,18.03
2018-06-24T22:33:14.405Z,18.03
2018-06-24T22:35:43.462Z,18.04
2018-06-24T22:38:12.542Z,18.06
2018-06-24T22:40:41.592Z,18.06
2018-06-24T22:43:10.659Z,18.05
2018-06-24T22:45:39.800Z,18.09
2018-06-24T22:48:08.789Z,18.15
2018-06-24T22:50:37.830Z,18.17
2018-06-24T22:53:06.868Z,18.19
2018-06-24T22:55:35.828Z,18.18
2018-06-24T22:58:04.869Z,18.21
2018-06-24T23:00:33.841Z,18.16
2018-06-24T23:03:05.120Z,18.15
2018-06-24T23:05:34.092Z,18.18
2018-06-24T23:08:03.064Z,18.17
2018-06-24T23:10:32.082Z,18.09
2018-06-24T23:13:01.059Z,18.10
2018-06-24T23:15:30.028Z,18.09
2018-06-24T23:17:59.089Z,18.10
2018-06-24T23:20:28.096Z,18.07
2018-06-24T23:22:57.567Z,18.01
2018-06-24T23:25:26.516Z,17.97
2018-06-24T23:27:55.505Z,17.95
2018-06-24T23:30:24.529Z,17.91
2018-06-24T23:32:53.624Z,17.91
2018-06-24T23:35:22.592Z,17.88
2018-06-24T23:37:51.708Z,17.89
2018-06-24T23:40:20.681Z,17.79
2018-06-24T23:42:49.805Z,17.69
2018-06-24T23:45:18.780Z,17.65
2018-06-24T23:47:47.740Z,17.64
2018-06-24T23:50:16.723Z,17.59
2018-06-24T23:52:45.840Z,17.60
2018-06-24T23:55:14.877Z,17.56
2018-06-24T23:57:43.880Z,17.46
